Time;durP1;ratioP1;P1;durP2;ratioP2;P2;SDS_P1;SDS_P2;PMS_P1;PMS_P2;Temp;Humidity;BMP_temperature;BMP_pressure;BME280_temperature;BME280_humidity;BME280_pressure;Samples;Min_cycle;Max_cycle;Signal;HPM_P1;HPM_P2
2023/03/26 00:00:22;;;;;;;17.13;14.60;;;;;;;13.51;100.00;98633.84;5133029;27;20579;-54
2023/03/26 00:03:27;;;;;;;17.57;14.27;;;;;;;13.37;100.00;98638.94;5129916;27;20194;-54
2023/03/26 00:06:14;;;;;;;15.83;14.17;;;;;;;13.18;100.00;98651.28;5133015;27;20282;-53
2023/03/26 00:09:10;;;;;;;16.20;14.43;;;;;;;13.04;100.00;98651.97;5132765;27;20396;-53
2023/03/26 00:12:14;;;;;;;15.47;13.83;;;;;;;12.97;100.00;98650.63;5132866;27;20194;-54
2023/03/26 00:15:09;;;;;;;14.40;12.70;;;;;;;12.85;100.00;98657.31;5132748;27;21019;-55
2023/03/26 00:18:14;;;;;;;14.20;12.20;;;;;;;12.75;100.00;98656.09;5132572;27;20212;-55
2023/03/26 00:21:14;;;;;;;16.80;13.03;;;;;;;12.75;100.00;98648.28;5132652;27;20683;-53
2023/03/26 00:24:13;;;;;;;16.47;12.73;;;;;;;12.68;100.00;98652.13;5132225;27;20198;-54
2023/03/26 00:27:13;;;;;;;14.37;12.57;;;;;;;12.65;100.00;98647.06;5131479;27;20229;-55
2023/03/26 00:30:04;;;;;;;16.33;13.27;;;;;;;12.66;100.00;98648.75;5132223;27;20190;-53
2023/03/26 00:33:03;;;;;;;14.63;13.13;;;;;;;12.74;100.00;98638.81;5131788;27;20255;-53
2023/03/26 00:35:46;;;;;;;15.00;13.40;;;;;;;12.82;100.00;98638.41;5132079;27;20588;-53
2023/03/26 00:38:49;;;;;;;15.30;13.67;;;;;;;12.90;100.00;98633.63;5132129;27;20237;-53
2023/03/26 00:41:42;;;;;;;20.20;13.87;;;;;;;13.00;100.00;98630.44;5131809;27;20379;-52
2023/03/26 00:44:42;;;;;;;17.93;14.73;;;;;;;13.06;100.00;98635.34;5131832;27;20201;-53
2023/03/26 00:47:56;;;;;;;17.10;14.33;;;;;;;13.14;100.00;98623.69;5129749;27;20201;-54
2023/03/26 00:57:23;;;;;;;15.60;14.07;;;;;;;13.27;100.00;98632.56;5131491;27;20336;-54
2023/03/26 01:00:13;;;;;;;17.03;14.37;;;;;;;13.34;100.00;98639.09;5130440;27;20253;-53
2023/03/26 01:03:13;;;;;;;16.70;14.90;;;;;;;13.35;100.00;98643.41;5129969;27;20228;-54
2023/03/26 01:06:10;;;;;;;14.60;13.20;;;;;;;13.47;100.00;98640.13;5130060;27;20257;-55
2023/03/26 01:09:12;;;;;;;17.37;13.83;;;;;;;13.54;100.00;98636.28;5130732;27;20279;-53
2023/03/26 01:12:21;;;;;;;16.43;14.83;;;;;;;13.68;100.00;98649.38;5131665;27;20205;-54
2023/03/26 01:15:28;;;;;;;14.80;13.30;;;;;;;13.71;100.00;98656.19;5131745;27;20193;-54
2023/03/26 01:18:28;;;;;;;;;;;;;;;;;;;;;
2023/03/26 01:24:39;;;;;;;13.50;12.20;;;;;;;13.85;100.00;98671.94;5128278;27;20577;-55
2023/03/26 01:27:33;;;;;;;15.27;12.43;;;;;;;13.85;100.00;98668.47;5129463;27;20350;-53
2023/03/26 01:33:28;;;;;;;15.67;12.10;;;;;;;13.90;100.00;98682.09;5111157;27;20225;-54
2023/03/26 01:36:22;;;;;;;13.33;12.13;;;;;;;13.97;100.00;98681.69;5110639;28;20230;-55
2023/03/26 01:48:54;;;;;;;13.63;12.20;;;;;;;13.78;100.00;98694.88;5108044;28;20226;-53
2023/03/26 01:51:52;;;;;;;13.43;12.13;;;;;;;13.83;100.00;98699.88;5110460;28;20191;-54
2023/03/26 01:54:37;;;;;;;12.60;11.37;;;;;;;13.94;100.00;98701.88;5110282;28;20682;-53
2023/03/26 01:57:28;;;;;;;13.97;10.87;;;;;;;13.86;100.00;98686.66;5110176;28;20238;-54
2023/03/26 02:00:23;;;;;;;12.23;10.80;;;;;;;13.93;100.00;98701.03;5110394;28;20678;-54
2023/03/26 02:24:14;;;;;;;6.97;6.47;;;;;;;13.97;100.00;98707.78;5041974;28;20730;-54
2023/03/26 02:27:04;;;;;;;7.93;6.23;;;;;;;13.99;100.00;98705.09;5045657;28;20228;-55
2023/03/26 02:30:24;;;;;;;6.10;5.60;;;;;;;13.98;100.00;98693.81;5058134;28;20251;-55
2023/03/26 02:33:22;;;;;;;6.27;5.67;;;;;;;14.05;100.00;98699.50;5067072;28;20222;-55
2023/03/26 02:36:22;;;;;;;;;;;;;;;;;;;;;
2023/03/26 02:39:16;;;;;;;6.23;5.10;;;;;;;14.07;100.00;98708.09;5065162;28;20204;-54
2023/03/26 02:41:55;;;;;;;4.13;3.83;;;;;;;14.10;100.00;98711.41;5067037;28;20207;-54
2023/03/26 02:45:05;;;;;;;4.30;4.00;;;;;;;14.09;100.00;98711.47;5064183;28;21074;-54
2023/03/26 02:48:10;;;;;;;4.90;4.53;;;;;;;14.10;100.00;98713.16;5066518;28;20200;-54
2023/03/26 02:51:17;;;;;;;5.30;4.30;;;;;;;14.13;100.00;98719.03;5065824;28;20195;-53
2023/03/26 02:54:18;;;;;;;3.57;3.37;;;;;;;14.22;100.00;98724.69;5066930;28;20686;-54
2023/03/26 03:00:24;;;;;;;3.13;2.93;;;;;;;14.23;100.00;98724.56;5065948;28;20227;-54
2023/03/26 03:12:05;;;;;;;3.03;2.83;;;;;;;14.21;100.00;98749.09;5064500;28;20286;-53
2023/03/26 03:15:06;;;;;;;2.43;2.33;;;;;;;14.20;99.65;98750.88;5066726;28;20222;-54
2023/03/26 03:18:08;;;;;;;2.23;2.13;;;;;;;14.15;99.85;98752.88;5065986;28;20670;-54
2023/03/26 03:24:06;;;;;;;2.33;2.10;;;;;;;14.06;99.81;98753.38;5066029;28;20224;-53
2023/03/26 03:27:01;;;;;;;1.83;1.73;;;;;;;14.05;98.86;98762.13;5065793;28;20228;-53
2023/03/26 03:30:07;;;;;;;1.60;1.50;;;;;;;14.06;97.94;98771.66;5064867;28;20694;-53
2023/03/26 03:33:25;;;;;;;;;;;;;;;;;;;;;
2023/03/26 03:36:22;;;;;;;2.40;1.50;;;;;;;13.91;98.38;98768.09;5065885;28;20204;-54
2023/03/26 03:39:11;;;;;;;1.70;1.60;;;;;;;13.92;97.95;98777.63;5070104;28;20257;-54
2023/03/26 03:42:01;;;;;;;1.80;1.70;;;;;;;13.86;97.75;98767.53;5069667;28;20212;-54
2023/03/26 03:44:57;;;;;;;1.50;1.40;;;;;;;13.82;97.97;98777.28;5068711;28;20212;-53
2023/03/26 03:51:11;;;;;;;1.80;1.70;;;;;;;13.70;97.18;98787.50;5069481;28;20206;-54
2023/03/26 03:54:26;;;;;;;3.27;2.17;;;;;;;13.68;96.67;98784.97;5069123;28;20193;-54
2023/03/26 04:04:06;;;;;;;1.13;1.13;;;;;;;13.62;96.37;98800.13;5069528;28;20718;-54
2023/03/26 04:16:24;;;;;;;1.20;1.20;;;;;;;13.55;96.73;98804.78;5067531;28;20680;-53
2023/03/26 04:22:06;;;;;;;1.30;1.30;;;;;;;13.36;97.65;98809.28;5068201;28;20701;-55
2023/03/26 04:25:01;;;;;;;1.70;1.60;;;;;;;13.39;97.61;98812.59;5068940;28;20200;-56
2023/03/26 04:27:40;;;;;;;1.70;1.60;;;;;;;13.28;98.96;98817.50;5068063;28;20228;-55
2023/03/26 04:30:41;;;;;;;2.43;1.50;;;;;;;13.28;98.47;98821.88;5068538;28;20219;-54
2023/03/26 04:33:27;;;;;;;1.57;1.40;;;;;;;13.26;97.99;98827.16;5069033;28;20192;-56
2023/03/26 04:39:12;;;;;;;1.40;1.30;;;;;;;13.33;98.06;98840.72;5067414;28;20202;-54
2023/03/26 04:42:21;;;;;;;2.30;1.70;;;;;;;13.38;98.59;98838.72;5068612;28;20663;-54
2023/03/26 04:45:16;;;;;;;7.53;5.50;;;;;;;13.37;99.61;98850.91;5068760;28;20925;-54
2023/03/26 04:47:47;;;;;;;2.83;1.90;;;;;;;13.40;99.26;98852.53;5067260;28;20192;-53
2023/03/26 04:50:21;;;;;;;1.50;1.40;;;;;;;13.41;98.50;98849.00;5068319;28;20286;-53
2023/03/26 04:52:52;;;;;;;1.70;1.60;;;;;;;13.41;98.50;98856.81;5068604;28;20257;-54
2023/03/26 04:59:09;;;;;;;1.70;1.60;;;;;;;13.43;98.90;98862.81;5068115;28;20192;-53
2023/03/26 05:01:48;;;;;;;1.93;1.83;;;;;;;13.48;98.21;98860.78;5050047;28;20228;-52
2023/03/26 05:04:21;;;;;;;1.90;1.80;;;;;;;13.54;98.21;98870.94;5047428;28;20712;-53
2023/03/26 05:06:51;;;;;;;4.07;1.70;;;;;;;13.58;97.70;98876.81;5046815;28;20680;-53
2023/03/26 05:09:24;;;;;;;3.37;1.60;;;;;;;13.66;97.80;98874.63;5047373;28;20763;-53
2023/03/26 05:11:57;;;;;;;1.87;1.77;;;;;;;13.72;97.14;98882.16;5047787;28;20227;-52
2023/03/26 05:14:35;;;;;;;1.73;1.60;;;;;;;13.82;96.52;98891.19;5047147;28;20300;-53
2023/03/26 05:17:12;;;;;;;2.00;1.90;;;;;;;13.89;96.37;98891.72;5047760;28;20772;-53
2023/03/26 05:19:51;;;;;;;2.17;1.97;;;;;;;14.01;95.25;98891.06;5080851;28;20303;-53
2023/03/26 05:22:20;;;;;;;2.17;1.80;;;;;;;14.57;94.27;98905.47;5089209;28;20612;-53
2023/03/26 05:24:55;;;;;;;1.60;1.50;;;;;;;16.12;88.72;98901.72;5089775;28;20265;-54
2023/03/26 05:27:33;;;;;;;1.70;1.60;;;;;;;17.93;81.07;98898.69;5112112;27;20236;-54
2023/03/26 05:30:10;;;;;;;1.80;1.70;;;;;;;19.19;71.21;98909.81;5130519;27;20240;-53
2023/03/26 05:32:40;;;;;;;1.63;1.52;;;;;;;20.43;67.42;98922.38;5130465;27;20217;-54
2023/03/26 05:35:16;;;;;;;2.03;1.63;;;;;;;21.87;62.63;98920.25;5130683;27;20273;-55
2023/03/26 05:37:48;;;;;;;1.73;1.63;;;;;;;23.09;56.45;98928.97;5130379;27;20256;-54
2023/03/26 05:40:28;;;;;;;1.75;1.63;;;;;;;24.10;51.65;98931.16;5130520;27;20656;-54
2023/03/26 05:43:02;;;;;;;2.42;1.73;;;;;;;24.83;49.33;98926.84;5128346;27;20292;-54
2023/03/26 05:45:41;;;;;;;2.85;1.83;;;;;;;24.92;47.57;98941.88;5128968;27;20198;-55
2023/03/26 05:48:44;;;;;;;1.30;1.30;;;;;;;25.05;47.08;98938.88;5120279;27;20198;-55
2023/03/26 05:51:22;;;;;;;1.63;1.52;;;;;;;25.15;46.34;98943.16;5109870;28;20206;-54
2023/03/26 05:54:19;;;;;;;2.38;1.90;;;;;;;24.99;46.51;98948.28;5110191;28;20665;-54
2023/03/26 06:00:14;;;;;;;1.27;1.23;;;;;;;26.14;43.20;98959.78;5109968;28;20194;-55
2023/03/26 06:03:05;;;;;;;2.67;1.83;;;;;;;26.91;41.80;98969.50;5110223;28;20709;-54
2023/03/26 06:05:51;;;;;;;2.00;1.77;;;;;;;27.50;39.68;98969.53;5121306;27;20318;-55
2023/03/26 06:08:51;;;;;;;1.60;1.50;;;;;;;28.12;37.98;98984.03;5130277;27;20712;-54
2023/03/26 06:11:44;;;;;;;1.40;1.30;;;;;;;28.28;36.58;98986.72;5129897;27;20249;-55
2023/03/26 06:14:32;;;;;;;2.17;2.05;;;;;;;28.30;35.90;98999.91;5129755;27;20294;-56
2023/03/26 06:17:02;;;;;;;2.55;1.52;;;;;;;28.61;35.28;98998.16;5129806;27;20222;-55
2023/03/26 06:19:51;;;;;;;2.30;2.13;;;;;;;28.80;34.41;98994.28;5129656;27;20218;-55
2023/03/26 06:22:27;;;;;;;1.40;1.27;;;;;;;28.55;34.71;98998.88;5129715;27;20247;-54
2023/03/26 06:25:17;;;;;;;1.85;1.70;;;;;;;29.02;33.60;98990.84;5129449;27;20218;-54
2023/03/26 06:27:47;;;;;;;1.92;1.40;;;;;;;29.44;32.67;98995.00;5128858;28;20230;-56
2023/03/26 06:30:24;;;;;;;2.88;2.67;;;;;;;29.51;33.06;98999.47;5128672;28;20225;-55
2023/03/26 06:32:57;;;;;;;2.63;2.28;;;;;;;30.04;32.24;98979.00;5129678;28;20611;-55
2023/03/26 06:35:57;;;;;;;1.70;1.60;;;;;;;29.81;31.89;98992.38;5129403;28;20654;-54
2023/03/26 06:42:06;;;;;;;1.80;1.70;;;;;;;29.31;31.93;98979.50;5128326;28;20233;-54
2023/03/26 06:45:06;;;;;;;2.20;2.10;;;;;;;29.42;31.76;98987.16;5129689;27;20201;-54
2023/03/26 06:50:58;;;;;;;1.60;1.60;;;;;;;30.61;29.12;98973.06;5130030;28;20308;-54
2023/03/26 06:53:39;;;;;;;2.13;1.55;;;;;;;30.96;28.56;98976.84;5125732;27;20696;-55
2023/03/26 06:56:15;;;;;;;1.95;1.80;;;;;;;31.80;27.89;98985.22;5111125;28;20212;-55
2023/03/26 06:59:05;;;;;;;2.75;1.85;;;;;;;31.84;27.43;98994.53;5129985;28;20225;-56
2023/03/26 07:01:53;;;;;;;3.97;3.70;;;;;;;31.40;28.03;99000.88;5129790;28;20190;-56
2023/03/26 07:04:29;;;;;;;1.92;1.83;;;;;;;31.03;28.51;99000.03;5129658;28;20194;-56
2023/03/26 07:07:11;;;;;;;3.30;2.10;;;;;;;30.80;28.98;98999.31;5130029;27;20193;-55
2023/03/26 07:09:59;;;;;;;1.88;1.77;;;;;;;30.00;29.15;99001.78;5133981;27;20231;-55
2023/03/26 07:12:37;;;;;;;2.38;2.28;;;;;;;30.19;29.44;99020.03;5134070;27;20206;-54
2023/03/26 07:15:32;;;;;;;2.33;2.20;;;;;;;30.71;28.43;98999.59;5133648;27;20280;-56
2023/03/26 07:18:03;;;;;;;4.55;2.00;;;;;;;30.68;27.85;99022.25;5133415;27;20194;-54
2023/03/26 07:20:49;;;;;;;2.70;2.20;;;;;;;31.77;26.79;99024.00;5126427;27;20301;-54
2023/03/26 07:23:26;;;;;;;1.90;1.80;;;;;;;32.32;25.85;99019.75;5112611;28;20677;-54
2023/03/26 07:25:57;;;;;;;2.50;1.85;;;;;;;33.80;24.01;99023.59;5112519;28;20245;-54
2023/03/26 07:28:52;;;;;;;4.07;1.80;;;;;;;33.84;23.50;99024.03;5112105;28;20277;-55
2023/03/26 07:31:33;;;;;;;1.73;1.63;;;;;;;33.32;24.55;99024.69;5111705;27;20261;-55
2023/03/26 07:34:15;;;;;;;1.80;1.70;;;;;;;33.54;23.99;99018.13;5130598;27;20578;-54
2023/03/26 07:36:53;;;;;;;1.98;1.70;;;;;;;33.08;23.95;99010.72;5118660;27;20206;-55
2023/03/26 07:39:48;;;;;;;1.42;1.33;;;;;;;33.07;23.55;99006.34;5113132;28;20216;-56
2023/03/26 07:42:38;;;;;;;4.07;2.20;;;;;;;33.67;23.01;99002.00;5112967;28;20205;-60
2023/03/26 07:45:42;;;;;;;2.88;2.67;;;;;;;35.00;22.09;98995.50;5112307;28;20245;-57
2023/03/26 07:51:13;;;;;;;2.00;1.80;;;;;;;34.73;21.65;98994.75;5109090;28;20306;-58
2023/03/26 07:54:08;;;;;;;1.88;1.77;;;;;;;34.04;22.12;98983.66;5112109;28;20279;-58
2023/03/26 07:56:43;;;;;;;2.05;1.95;;;;;;;32.08;23.30;98980.69;5109250;28;20697;-59
2023/03/26 07:59:25;;;;;;;1.63;1.50;;;;;;;32.77;22.40;98976.25;5111714;28;20282;-55
2023/03/26 08:02:21;;;;;;;3.38;1.48;;;;;;;33.65;21.75;98977.16;5112105;28;20199;-56
2023/03/26 08:05:17;;;;;;;1.52;1.42;;;;;;;33.71;21.95;98980.91;5112173;28;20191;-56
2023/03/26 08:08:16;;;;;;;1.63;1.52;;;;;;;33.32;21.64;98977.09;5112146;28;20279;-56
2023/03/26 08:11:10;;;;;;;1.85;1.75;;;;;;;32.76;22.62;98971.91;5111897;28;20309;-56
2023/03/26 08:14:01;;;;;;;1.65;1.60;;;;;;;32.52;22.35;98963.47;5112133;28;20198;-56
2023/03/26 08:16:38;;;;;;;2.00;1.90;;;;;;;30.81;24.01;98951.94;5111741;28;20285;-55
2023/03/26 08:19:39;;;;;;;2.53;2.15;;;;;;;27.80;27.06;98955.56;5123844;27;20226;-56
2023/03/26 08:22:44;;;;;;;3.70;1.80;;;;;;;25.58;30.05;98961.00;5132014;27;20283;-56
2023/03/26 08:25:59;;;;;;;2.95;2.67;;;;;;;24.26;33.08;98952.66;5131387;27;20661;-55
2023/03/26 08:29:01;;;;;;;2.60;2.05;;;;;;;22.78;35.56;98952.03;5132367;27;20632;-55
2023/03/26 08:31:59;;;;;;;7.55;2.67;;;;;;;22.31;37.62;98938.44;5134421;27;20228;-56
2023/03/26 08:34:51;;;;;;;6.25;3.42;;;;;;;21.99;39.04;98948.31;5129192;27;20194;-56
2023/03/26 08:37:44;;;;;;;2.42;2.28;;;;;;;21.72;40.47;98941.69;5130750;27;20289;-55
2023/03/26 08:40:57;;;;;;;2.47;2.28;;;;;;;21.80;38.19;98946.31;5131815;27;20201;-54
2023/03/26 08:48:00;;;;;;;3.75;3.35;;;;;;;21.45;38.74;98943.97;5047912;28;20213;-56
2023/03/26 08:51:13;;;;;;;3.70;2.53;;;;;;;21.39;39.82;98939.19;5132056;27;20222;-55
2023/03/26 08:57:55;;;;;;;5.40;4.45;;;;;;;21.04;39.00;98934.13;5131086;27;20197;-53
2023/03/26 09:04:40;;;;;;;2.20;2.10;;;;;;;20.79;38.87;98939.69;5129579;27;20246;-56
2023/03/26 09:18:26;;;;;;;;;;;;;;;;;;;;;
2023/03/26 09:25:06;;;;;;;3.25;1.90;;;;;;;20.76;36.29;98918.84;5127003;27;20294;-54
2023/03/26 09:28:53;;;;;;;2.15;2.03;;;;;;;20.98;35.71;98919.66;5130660;27;20275;-53
2023/03/26 09:32:09;;;;;;;2.00;1.90;;;;;;;21.00;35.29;98906.31;5130702;27;20700;-53
2023/03/26 09:38:58;;;;;;;4.65;2.60;;;;;;;21.29;34.96;98909.25;5124126;27;20206;-54
2023/03/26 09:42:02;;;;;;;2.97;2.65;;;;;;;21.07;34.40;98885.56;5130834;27;20280;-54
2023/03/26 09:55:34;;;;;;;2.90;2.70;;;;;;;21.16;34.19;98893.53;5129954;27;20236;-55
2023/03/26 10:08:57;;;;;;;4.07;2.83;;;;;;;21.27;34.40;98876.84;5129034;27;20711;-54
2023/03/26 10:11:59;;;;;;;3.53;1.80;;;;;;;21.18;33.84;98862.63;5130575;27;20282;-53
2023/03/26 10:15:18;;;;;;;4.25;2.15;;;;;;;21.37;35.25;98859.28;5129989;27;20197;-53
2023/03/26 10:25:11;;;;;;;3.85;1.92;;;;;;;21.48;33.46;98859.22;5127940;27;20237;-53
2023/03/26 10:27:50;;;;;;;1.52;1.40;;;;;;;21.47;32.83;98859.34;5126811;27;20230;-55
2023/03/26 10:34:07;;;;;;;2.28;2.08;;;;;;;21.67;32.69;98850.59;5108175;28;20674;-54
2023/03/26 10:36:44;;;;;;;2.10;2.00;;;;;;;21.86;31.97;98841.94;5112542;28;20202;-53
2023/03/26 10:39:36;;;;;;;1.77;1.67;;;;;;;21.81;31.79;98841.47;5127971;28;20277;-55
2023/03/26 10:42:28;;;;;;;1.67;1.58;;;;;;;21.81;30.80;98841.47;5128829;27;20276;-54
2023/03/26 10:45:37;;;;;;;2.35;1.52;;;;;;;21.72;30.83;98821.97;5131940;27;20662;-54
2023/03/26 10:48:49;;;;;;;1.40;1.13;;;;;;;21.77;30.92;98824.25;5131475;27;20193;-55
2023/03/26 10:54:51;;;;;;;1.70;1.60;;;;;;;21.64;30.27;98825.28;5081665;27;1877544;-54
2023/03/26 10:57:43;;;;;;;2.13;1.60;;;;;;;21.61;30.42;98817.63;5127701;28;20197;-54
2023/03/26 11:00:23;;;;;;;1.35;1.35;;;;;;;21.54;30.74;98826.19;5127690;28;20193;-55
2023/03/26 11:03:38;;;;;;;1.90;1.80;;;;;;;21.62;30.88;98814.00;5127558;28;20285;-56
2023/03/26 11:06:26;;;;;;;1.90;1.80;;;;;;;21.72;30.70;98814.91;5123053;28;20694;-55
2023/03/26 11:09:08;;;;;;;1.90;1.80;;;;;;;21.66;30.66;98814.59;5128366;28;20193;-54
2023/03/26 11:11:57;;;;;;;2.03;1.92;;;;;;;21.40;30.62;98802.75;5124953;28;20189;-56
2023/03/26 11:14:54;;;;;;;1.40;1.40;;;;;;;21.53;30.75;98803.41;5126106;28;20750;-53
2023/03/26 11:17:55;;;;;;;1.90;1.80;;;;;;;21.63;30.75;98796.38;5126607;28;20281;-54
2023/03/26 11:21:07;;;;;;;2.50;2.30;;;;;;;21.69;29.63;98794.03;5127062;28;20190;-54
2023/03/26 11:24:23;;;;;;;1.25;1.15;;;;;;;21.59;29.67;98792.31;5127270;28;20290;-55
2023/03/26 11:27:30;;;;;;;1.20;1.20;;;;;;;21.58;29.70;98794.09;5126452;28;20646;-54
2023/03/26 11:30:47;;;;;;;1.60;1.50;;;;;;;21.54;29.60;98778.66;5127149;28;20554;-54
2023/03/26 11:33:50;;;;;;;1.83;1.73;;;;;;;21.55;30.11;98780.34;5124464;28;20210;-55
2023/03/26 11:46:25;;;;;;;2.05;1.85;;;;;;;21.25;30.62;98768.75;4583665;27;15858417;-55
2023/03/26 11:49:28;;;;;;;;;;;;;;;;;;;;;
2023/03/26 11:58:06;;;;;;;1.60;1.50;;;;;;;21.07;29.76;98769.44;5127330;28;20206;-54
2023/03/26 12:01:03;;;;;;;1.30;1.30;;;;;;;21.14;29.77;98760.88;5127060;28;20198;-54
2023/03/26 12:04:11;;;;;;;1.63;1.52;;;;;;;21.10;30.21;98758.66;5126867;28;20193;-55
2023/03/26 12:07:26;;;;;;;1.20;1.20;;;;;;;21.12;30.46;98756.69;5126220;28;20609;-55
2023/03/26 12:16:26;;;;;;;1.58;1.20;;;;;;;21.12;30.48;98751.41;5125673;28;20194;-56
2023/03/26 12:26:27;;;;;;;1.27;1.17;;;;;;;21.14;30.24;98728.38;5126046;28;20610;-54
2023/03/26 12:36:05;;;;;;;1.50;1.40;;;;;;;20.89;29.88;98725.16;5123855;28;20233;-54
2023/03/26 12:38:53;;;;;;;1.73;1.35;;;;;;;20.91;28.52;98717.13;5126582;28;20190;-54
2023/03/26 12:51:32;;;;;;;3.20;1.48;;;;;;;20.83;28.73;98707.22;5125578;28;20205;-55
2023/03/26 12:54:54;;;;;;;1.27;1.27;;;;;;;20.84;28.77;98698.34;5126406;28;20202;-53
2023/03/26 13:07:05;;;;;;;2.70;2.50;;;;;;;20.75;27.52;98682.47;5110030;28;20203;-54
2023/03/26 13:13:49;;;;;;;2.15;2.05;;;;;;;20.55;26.68;98657.72;5109918;28;20263;-55
2023/03/26 13:16:52;;;;;;;1.45;1.42;;;;;;;20.64;26.62;98678.09;5112201;28;20190;-55
2023/03/26 13:22:52;;;;;;;1.23;1.23;;;;;;;20.78;25.66;98664.56;5111455;28;20194;-56
2023/03/26 13:28:56;;;;;;;1.33;1.33;;;;;;;20.87;25.07;98661.16;5109083;28;20210;-56
2023/03/26 13:38:50;;;;;;;3.38;1.33;;;;;;;20.79;25.61;98645.13;5108885;28;20766;-55
2023/03/26 13:41:37;;;;;;;1.52;1.42;;;;;;;20.77;25.77;98649.69;5111517;28;20561;-55
2023/03/26 13:44:46;;;;;;;2.20;2.10;;;;;;;20.76;26.66;98644.56;5110499;28;20362;-55
2023/03/26 13:47:53;;;;;;;2.00;1.90;;;;;;;20.77;26.54;98640.97;5110243;28;20422;-54
2023/03/26 14:02:52;;;;;;;2.65;1.67;;;;;;;20.67;26.52;98646.16;5088260;28;20238;-54
2023/03/26 14:05:52;;;;;;;1.90;1.80;;;;;;;20.61;27.29;98646.69;5098065;28;20218;-54
2023/03/26 14:08:44;;;;;;;1.92;1.70;;;;;;;20.58;27.16;98646.94;5110532;28;20202;-54
2023/03/26 14:11:54;;;;;;;2.00;1.90;;;;;;;20.65;27.86;98638.38;5111235;28;20194;-55
2023/03/26 14:14:50;;;;;;;2.03;1.83;;;;;;;20.60;27.81;98640.59;5111427;28;20198;-54
2023/03/26 14:17:43;;;;;;;3.22;1.60;;;;;;;20.55;27.79;98642.75;5110728;28;20198;-53
2023/03/26 14:20:53;;;;;;;1.70;1.60;;;;;;;20.52;28.00;98653.56;5110887;28;20293;-53
2023/03/26 14:24:31;;;;;;;1.42;1.40;;;;;;;20.55;28.01;98644.56;5110851;28;20525;-54
2023/03/26 14:27:45;;;;;;;1.50;1.40;;;;;;;20.55;28.62;98649.81;5108497;28;20193;-54
2023/03/26 14:31:05;;;;;;;1.42;1.33;;;;;;;20.60;28.11;98637.09;5110987;28;20806;-53
2023/03/26 14:34:01;;;;;;;1.52;1.42;;;;;;;20.60;28.09;98635.31;5103665;28;20228;-52
2023/03/26 14:37:06;;;;;;;2.70;1.20;;;;;;;20.60;28.16;98640.59;5110969;28;20243;-54
2023/03/26 14:40:27;;;;;;;2.25;2.15;;;;;;;20.59;27.97;98645.97;5089913;28;20238;-54
2023/03/26 14:47:03;;;;;;;2.35;2.15;;;;;;;20.56;28.05;98633.03;5068083;28;20698;-54
2023/03/26 14:50:07;;;;;;;1.90;1.80;;;;;;;20.55;28.03;98636.63;5068505;28;20591;-54
2023/03/26 14:53:05;;;;;;;1.80;1.65;;;;;;;20.54;28.04;98632.38;5068940;28;20557;-54
2023/03/26 14:59:48;;;;;;;1.60;1.60;;;;;;;20.47;28.23;98618.84;5068419;28;20196;-54
2023/03/26 15:03:08;;;;;;;3.13;2.92;;;;;;;20.43;28.11;98606.06;5035415;28;20224;-54
2023/03/26 15:06:37;;;;;;;2.10;2.00;;;;;;;20.40;28.29;98622.97;5068569;28;20648;-54
2023/03/26 15:09:39;;;;;;;1.88;1.77;;;;;;;20.40;28.25;98622.97;5054580;28;20207;-54
2023/03/26 15:16:06;;;;;;;3.70;1.65;;;;;;;20.26;32.39;98605.63;5048140;28;20306;-53
2023/03/26 15:19:30;;;;;;;1.80;1.70;;;;;;;20.20;29.08;98606.09;5048966;28;20225;-53
2023/03/26 15:22:49;;;;;;;1.73;1.63;;;;;;;20.20;29.33;98603.47;5049371;28;20236;-53
2023/03/26 15:26:17;;;;;;;1.75;1.65;;;;;;;20.15;30.21;98600.41;5048065;28;20226;-53
2023/03/26 15:36:42;;;;;;;2.15;2.03;;;;;;;20.06;28.33;98606.44;5148403;27;20429;-53
2023/03/26 15:43:40;;;;;;;;;;;;;;;;;;;;;
2023/03/26 15:46:54;;;;;;;2.67;1.88;;;;;;;20.01;28.28;98603.31;5138290;27;20193;-53
2023/03/26 15:59:16;;;;;;;2.42;1.60;;;;;;;19.74;28.03;98606.44;5146547;27;20205;-52
2023/03/26 16:02:42;;;;;;;;;;;;;;;;;;;;;
2023/03/26 16:05:58;;;;;;;2.03;1.90;;;;;;;19.62;28.67;98603.94;5144823;27;20201;-55
2023/03/26 16:08:53;;;;;;;3.17;1.80;;;;;;;19.61;29.00;98613.63;5147813;27;20660;-54
2023/03/26 18:11:21;;;;;;;12.90;10.47;;;;;;;16.15;42.93;98734.81;4508689;27;17194635;-51
2023/03/26 18:14:17;;;;;;;17.87;10.70;;;;;;;16.14;42.17;98740.97;5086830;28;20260;-53
2023/03/26 18:16:56;;;;;;;17.83;11.37;;;;;;;16.12;42.58;98742.88;5083716;28;20219;-52
2023/03/26 18:19:32;;;;;;;22.50;13.07;;;;;;;16.17;42.50;98737.31;5084322;28;20231;-49
2023/03/26 18:22:06;;;;;;;24.10;14.13;;;;;;;16.24;42.47;98744.72;5085845;28;20270;-52
2023/03/26 18:24:44;;;;;;;21.63;15.37;;;;;;;16.27;42.14;98748.88;5084815;28;20253;-54
2023/03/26 18:27:29;;;;;;;21.53;14.93;;;;;;;16.27;42.82;98751.50;5085071;28;20215;-52
2023/03/26 18:30:17;;;;;;;28.03;16.10;;;;;;;16.25;42.25;98742.94;5085831;28;20238;-52
2023/03/26 18:33:03;;;;;;;21.60;14.93;;;;;;;16.23;42.16;98750.03;5085922;28;20312;-51
2023/03/26 18:36:01;;;;;;;22.77;15.13;;;;;;;16.26;41.28;98747.19;5083820;28;20310;-52
2023/03/26 18:38:51;;;;;;;18.30;12.13;;;;;;;16.25;41.54;98743.75;5083695;28;20667;-51
2023/03/26 18:41:42;;;;;;;17.77;12.83;;;;;;;16.29;41.67;98752.25;5085774;28;20203;-52
2023/03/26 18:44:49;;;;;;;23.87;12.90;;;;;;;16.23;41.79;98716.84;5085445;28;20218;-51
2023/03/26 18:47:21;;;;;;;19.17;12.33;;;;;;;16.12;42.67;98740.25;5078956;28;20717;-53
2023/03/26 18:49:58;;;;;;;21.57;12.73;;;;;;;16.07;42.55;98734.47;5084019;28;20214;-51
2023/03/26 18:52:42;;;;;;;19.13;12.43;;;;;;;16.15;42.86;98744.44;5083399;28;20615;-52
2023/03/26 18:55:16;;;;;;;23.67;13.20;;;;;;;16.24;42.75;98746.50;5084537;28;20217;-54
2023/03/26 18:58:02;;;;;;;18.10;12.37;;;;;;;16.22;43.34;98750.97;5084645;28;20242;-52
2023/03/26 19:00:41;;;;;;;21.27;13.83;;;;;;;16.25;43.53;98746.38;5084119;28;20238;-52
2023/03/26 19:03:13;;;;;;;18.53;11.97;;;;;;;16.31;42.57;98745.16;5084692;28;20586;-52
2023/03/26 19:05:48;;;;;;;19.47;11.80;;;;;;;16.28;42.76;98746.16;5084359;28;20229;-52
2023/03/26 19:08:18;;;;;;;28.03;13.00;;;;;;;16.30;43.49;98748.69;5084939;28;20398;-52
2023/03/26 19:11:03;;;;;;;17.57;14.13;;;;;;;16.24;43.33;98743.88;5064127;28;20624;-53
2023/03/26 19:13:47;;;;;;;18.93;13.07;;;;;;;16.16;43.71;98736.47;5064962;28;20603;-51
2023/03/26 19:16:57;;;;;;;18.50;12.63;;;;;;;16.13;44.94;98735.84;5064850;28;20401;-52
2023/03/26 19:22:47;;;;;;;18.07;11.73;;;;;;;16.01;44.99;98741.88;5050640;28;20228;-54
2023/03/26 19:28:52;;;;;;;15.93;10.57;;;;;;;15.92;44.15;98744.09;5048784;28;20273;-57
2023/03/26 19:31:53;;;;;;;18.00;10.77;;;;;;;15.90;43.40;98738.16;5049977;28;20339;-52
2023/03/26 19:35:02;;;;;;;14.70;10.70;;;;;;;15.85;43.80;98742.81;5051135;28;20228;-53
2023/03/26 19:37:40;;;;;;;17.10;9.93;;;;;;;15.82;45.39;98743.00;5048219;28;20220;-56
2023/03/26 19:40:38;;;;;;;16.37;10.23;;;;;;;15.77;45.31;98733.78;5040534;28;20232;-52
2023/03/26 19:43:31;;;;;;;15.17;10.43;;;;;;;15.68;46.13;98740.44;5051351;28;20227;-51
2023/03/26 19:46:38;;;;;;;24.93;10.40;;;;;;;15.62;47.05;98740.78;5049919;28;20221;-52
2023/03/26 19:50:04;;;;;;;21.30;9.67;;;;;;;15.58;47.06;98737.50;5049452;28;20223;-52
2023/03/26 19:52:55;;;;;;;28.07;14.57;;;;;;;15.41;47.25;98729.00;5050758;28;20726;-51
2023/03/26 19:55:40;;;;;;;34.60;20.50;;;;;;;15.40;46.96;98729.94;5049813;28;20259;-51
2023/03/26 19:58:18;;;;;;;52.63;27.97;;;;;;;15.30;48.41;98729.66;5051205;28;20220;-52
2023/03/26 20:00:51;;;;;;;59.53;30.97;;;;;;;15.32;48.20;98719.09;5050496;28;20219;-52
2023/03/26 20:03:29;;;;;;;61.50;32.53;;;;;;;15.19;48.38;98727.69;5050414;28;20220;-51
2023/03/26 20:06:33;;;;;;;64.10;35.13;;;;;;;15.18;48.79;98726.00;5050632;28;20224;-52
2023/03/26 20:11:55;;;;;;;89.67;44.73;;;;;;;15.01;48.49;98715.69;5088592;28;20238;-51
2023/03/26 20:14:37;;;;;;;96.63;48.37;;;;;;;15.05;49.07;98713.75;5091075;28;20219;-51
2023/03/26 20:17:33;;;;;;;96.13;50.07;;;;;;;14.99;48.50;98698.47;5090173;28;20219;-52
2023/03/26 20:20:35;;;;;;;111.20;55.53;;;;;;;15.08;48.08;98709.19;5091187;28;20227;-52
2023/03/26 20:23:27;;;;;;;112.73;58.10;;;;;;;15.16;47.26;98699.09;5090420;28;20219;-52
2023/03/26 20:26:31;;;;;;;108.43;57.87;;;;;;;15.16;46.95;98709.56;5090256;28;20227;-51
2023/03/26 20:29:10;;;;;;;117.93;58.77;;;;;;;15.17;47.01;98703.41;5089686;28;20215;-50